createdAt,value
2023-01-25T00:00:29.619Z,3.60
2023-01-25T00:02:56.835Z,3.60
2023-01-25T00:05:25.072Z,3.60
2023-01-25T00:07:51.929Z,3.60
2023-01-25T00:10:19.455Z,3.60
2023-01-25T00:12:46.392Z,3.60
2023-01-25T00:15:13.707Z,3.60
2023-01-25T00:17:40.632Z,3.60
2023-01-25T00:20:08.996Z,3.60
2023-01-25T00:22:37.243Z,3.70
2023-01-25T00:25:04.597Z,3.70
2023-01-25T00:27:31.630Z,3.70
2023-01-25T00:29:58.543Z,3.70
2023-01-25T00:32:41.076Z,3.70
2023-01-25T00:35:12.388Z,3.60
2023-01-25T00:37:43.595Z,3.60
2023-01-25T00:40:12.788Z,3.60
2023-01-25T00:42:39.981Z,3.60
2023-01-25T00:45:08.525Z,3.60
2023-01-25T00:47:35.546Z,3.60
2023-01-25T00:50:05.707Z,3.60
2023-01-25T00:52:32.593Z,3.60
2023-01-25T00:55:01.178Z,3.60
2023-01-25T00:57:28.024Z,3.60
2023-01-25T00:59:54.980Z,3.60
2023-01-25T01:02:21.806Z,3.60
2023-01-25T01:04:48.800Z,3.60
2023-01-25T01:07:15.811Z,3.60
2023-01-25T01:09:42.809Z,3.60
2023-01-25T01:12:11.056Z,3.60
2023-01-25T01:14:38.010Z,3.60
2023-01-25T01:17:05.937Z,3.60
2023-01-25T01:19:33.189Z,3.60
2023-01-25T01:22:00.062Z,3.60
2023-01-25T01:24:29.267Z,3.60
2023-01-25T01:26:56.162Z,3.60
2023-01-25T01:29:24.600Z,3.60
2023-01-25T01:31:53.535Z,3.60
2023-01-25T01:34:23.819Z,3.50
2023-01-25T01:36:51.078Z,3.50
2023-01-25T01:39:18.107Z,3.50
2023-01-25T01:41:45.021Z,3.50
2023-01-25T01:44:17.406Z,3.50
2023-01-25T01:46:53.099Z,3.50
2023-01-25T01:49:25.844Z,3.50
2023-01-25T01:52:00.779Z,3.50
2023-01-25T01:54:36.275Z,3.50
2023-01-25T01:57:09.204Z,3.50
2023-01-25T01:59:41.939Z,3.60
2023-01-25T02:02:10.320Z,3.60
2023-01-25T02:04:37.668Z,3.50
2023-01-25T02:07:16.834Z,3.50
2023-01-25T02:09:47.944Z,3.50
2023-01-25T02:12:15.787Z,3.50
2023-01-25T02:14:48.259Z,3.50
2023-01-25T02:17:24.171Z,3.50
2023-01-25T02:19:58.734Z,3.50
2023-01-25T02:22:34.276Z,3.60
2023-01-25T02:25:06.111Z,3.50
2023-01-25T02:27:36.500Z,3.50
2023-01-25T02:30:04.431Z,3.60
2023-01-25T02:32:32.499Z,3.60
2023-01-25T02:34:59.425Z,3.60
2023-01-25T02:37:26.709Z,3.50
2023-01-25T02:39:53.873Z,3.50
2023-01-25T02:42:22.281Z,3.60
2023-01-25T02:44:50.488Z,3.60
2023-01-25T02:47:17.405Z,3.50
2023-01-25T02:49:44.758Z,3.50
2023-01-25T02:52:11.683Z,3.50
2023-01-25T02:54:38.967Z,3.50
2023-01-25T03:01:15.293Z,3.50
2023-01-25T03:03:42.596Z,3.50
2023-01-25T03:06:09.566Z,3.50
2023-01-25T03:08:36.908Z,3.50
2023-01-25T03:11:06.594Z,3.50
2023-01-25T03:13:35.810Z,3.50
2023-01-25T03:16:04.741Z,3.40
2023-01-25T03:18:33.119Z,3.40
2023-01-25T03:21:05.979Z,3.40
2023-01-25T03:23:34.138Z,3.40
2023-01-25T03:26:06.509Z,3.40
2023-01-25T03:28:33.520Z,3.40
2023-01-25T03:31:00.912Z,3.40
2023-01-25T03:33:28.009Z,3.40
2023-01-25T03:35:56.668Z,3.40
2023-01-25T03:38:24.118Z,3.40
2023-01-25T03:40:51.102Z,3.50
2023-01-25T03:43:18.200Z,3.50
2023-01-25T03:45:54.144Z,3.50
2023-01-25T03:48:21.216Z,3.50
2023-01-25T03:50:52.353Z,3.50
2023-01-25T03:53:32.197Z,3.50
2023-01-25T03:56:08.736Z,3.40
2023-01-25T03:58:37.685Z,3.50
2023-01-25T04:01:06.214Z,3.50
2023-01-25T04:03:34.417Z,3.50
2023-01-25T04:06:02.134Z,3.50
2023-01-25T04:08:32.177Z,3.50
2023-01-25T04:11:02.609Z,3.50
2023-01-25T04:13:30.035Z,3.40
2023-01-25T04:15:57.193Z,3.40
2023-01-25T04:18:52.979Z,3.50
2023-01-25T04:21:20.161Z,3.50
2023-01-25T04:23:48.713Z,3.50
2023-01-25T04:26:15.981Z,3.50
2023-01-25T04:28:48.668Z,3.50
2023-01-25T04:31:16.313Z,3.50
2023-01-25T04:33:43.756Z,3.50
2023-01-25T04:36:12.625Z,3.50
2023-01-25T04:38:42.192Z,3.50
2023-01-25T04:41:11.739Z,3.50
2023-01-25T04:43:38.688Z,3.50
2023-01-25T04:46:09.982Z,3.40
2023-01-25T04:48:36.974Z,3.50
2023-01-25T04:51:06.336Z,3.40
2023-01-25T04:53:34.681Z,3.40
2023-01-25T04:56:02.994Z,3.40
2023-01-25T04:58:36.210Z,3.40
2023-01-25T05:01:03.962Z,3.50
2023-01-25T05:03:31.731Z,3.40
2023-01-25T05:05:58.747Z,3.40
2023-01-25T05:08:26.832Z,3.40
2023-01-25T05:10:58.678Z,3.40
2023-01-25T05:13:33.096Z,3.50
2023-01-25T05:16:14.316Z,3.50
2023-01-25T05:18:48.338Z,3.50
2023-01-25T05:21:38.900Z,3.40
2023-01-25T05:24:06.993Z,3.40
2023-01-25T05:26:52.917Z,3.40
2023-01-25T05:29:20.180Z,3.40
2023-01-25T05:31:55.050Z,3.40
2023-01-25T05:34:22.100Z,3.40
2023-01-25T05:36:49.591Z,3.40
2023-01-25T05:39:17.011Z,3.40
2023-01-25T05:41:45.088Z,3.40
2023-01-25T05:44:12.694Z,3.40
2023-01-25T05:46:43.601Z,3.50
2023-01-25T05:49:12.075Z,3.40
2023-01-25T05:51:39.847Z,3.50
2023-01-25T05:54:09.416Z,3.50
2023-01-25T05:56:36.456Z,3.50
2023-01-25T05:59:03.457Z,3.50
2023-01-25T06:01:30.623Z,3.50
2023-01-25T06:03:59.060Z,3.50
2023-01-25T06:06:27.498Z,3.50
2023-01-25T06:08:54.854Z,3.50
2023-01-25T06:11:23.722Z,3.50
2023-01-25T06:13:52.882Z,3.50
2023-01-25T06:16:21.289Z,3.50
2023-01-25T06:19:07.045Z,3.50
2023-01-25T06:21:55.816Z,3.40
2023-01-25T06:24:22.739Z,3.40
2023-01-25T06:26:49.703Z,3.50
2023-01-25T06:29:16.793Z,3.50
2023-01-25T06:31:43.907Z,3.50
2023-01-25T06:34:10.890Z,3.50
2023-01-25T06:36:37.778Z,3.50
2023-01-25T06:39:06.730Z,3.50
2023-01-25T06:41:33.785Z,3.50
2023-01-25T06:44:00.693Z,3.50
2023-01-25T06:46:27.830Z,3.50
2023-01-25T06:48:54.730Z,3.50
2023-01-25T06:51:21.606Z,3.40
2023-01-25T06:53:48.586Z,3.40
2023-01-25T06:56:18.601Z,3.40
2023-01-25T06:58:46.063Z,3.40
2023-01-25T07:01:15.227Z,3.40
2023-01-25T07:03:42.817Z,3.30
2023-01-25T07:06:10.889Z,3.30
2023-01-25T07:08:38.157Z,3.30
2023-01-25T07:11:09.519Z,3.30
2023-01-25T07:13:37.851Z,3.30
2023-01-25T07:16:06.490Z,3.30
2023-01-25T07:18:34.384Z,3.40
2023-01-25T07:21:05.187Z,3.30
2023-01-25T07:23:33.422Z,3.40
2023-01-25T07:26:01.084Z,3.40
2023-01-25T07:28:28.651Z,3.40
2023-01-25T07:30:57.118Z,3.20
2023-01-25T07:33:24.020Z,3.10
2023-01-25T07:35:50.990Z,3.00
2023-01-25T07:38:18.146Z,3.00
2023-01-25T07:40:51.761Z,3.00
2023-01-25T07:43:18.818Z,3.00
2023-01-25T07:45:48.735Z,2.90
2023-01-25T07:48:18.674Z,2.80
2023-01-25T07:51:11.384Z,2.70
2023-01-25T07:53:39.014Z,2.70
2023-01-25T07:56:06.533Z,2.80
2023-01-25T07:58:33.564Z,2.80
2023-01-25T08:01:06.682Z,2.90
2023-01-25T08:03:34.873Z,2.80
2023-01-25T08:06:04.437Z,2.60
2023-01-25T08:08:33.873Z,2.50
2023-01-25T08:11:01.588Z,2.50
2023-01-25T08:13:28.464Z,2.40
2023-01-25T08:15:55.876Z,2.40
2023-01-25T08:18:22.842Z,2.40
2023-01-25T08:20:51.032Z,2.30
2023-01-25T08:23:20.334Z,2.40
2023-01-25T08:25:47.395Z,2.40
2023-01-25T08:28:14.274Z,2.40
2023-01-25T08:30:52.046Z,2.40
2023-01-25T08:33:23.210Z,2.40
2023-01-25T08:35:56.687Z,2.40
2023-01-25T08:38:23.707Z,2.40
2023-01-25T08:40:51.055Z,2.60
2023-01-25T08:43:18.208Z,2.70
2023-01-25T08:45:45.393Z,2.80
2023-01-25T08:48:15.513Z,2.80
2023-01-25T08:50:46.500Z,2.80
2023-01-25T08:53:14.854Z,2.90
2023-01-25T08:55:43.093Z,3.00
2023-01-25T08:58:11.047Z,3.10
2023-01-25T09:00:39.141Z,3.10
2023-01-25T09:03:06.488Z,3.20
2023-01-25T09:05:34.791Z,3.20
2023-01-25T09:08:02.442Z,3.20
2023-01-25T09:10:30.866Z,3.30
2023-01-25T09:12:57.929Z,3.20
2023-01-25T09:15:25.120Z,3.10
2023-01-25T09:17:52.173Z,3.00
2023-01-25T09:20:19.423Z,2.90
2023-01-25T09:22:46.471Z,2.90
2023-01-25T09:25:13.609Z,2.90
2023-01-25T09:27:41.998Z,3.00
2023-01-25T09:30:18.291Z,3.00
2023-01-25T09:32:50.583Z,2.90
2023-01-25T09:35:17.749Z,2.90
2023-01-25T09:37:44.617Z,2.90
2023-01-25T09:40:20.505Z,2.90
2023-01-25T09:42:58.573Z,2.90
2023-01-25T09:45:32.459Z,3.00
2023-01-25T09:48:20.037Z,3.10
2023-01-25T09:51:04.487Z,3.10
2023-01-25T09:53:34.588Z,3.00
2023-01-25T09:56:04.840Z,3.00
2023-01-25T09:58:37.050Z,3.10
2023-01-25T10:01:29.509Z,3.20
2023-01-25T10:04:10.209Z,3.20
2023-01-25T10:06:40.763Z,3.30
2023-01-25T10:09:24.246Z,3.40
2023-01-25T10:11:51.240Z,3.40
2023-01-25T10:14:21.576Z,3.40
2023-01-25T10:16:57.690Z,3.40
2023-01-25T10:19:34.910Z,3.50
2023-01-25T10:22:08.553Z,3.50
2023-01-25T10:25:01.732Z,3.50
2023-01-25T10:27:39.207Z,3.50
2023-01-25T10:30:23.272Z,3.50
2023-01-25T10:32:56.225Z,3.50
2023-01-25T10:35:35.361Z,3.60
2023-01-25T10:38:09.864Z,3.60
2023-01-25T10:40:43.044Z,3.60
2023-01-25T10:43:16.732Z,3.60
2023-01-25T10:45:45.440Z,3.60
2023-01-25T10:48:17.436Z,3.60
2023-01-25T10:50:47.766Z,3.60
2023-01-25T10:53:29.757Z,3.40
2023-01-25T10:56:03.239Z,3.30
2023-01-25T10:58:35.327Z,3.20
2023-01-25T11:01:07.074Z,3.20
2023-01-25T11:03:36.464Z,3.20
2023-01-25T11:06:03.788Z,3.30
2023-01-25T11:08:36.759Z,3.40
2023-01-25T11:11:23.582Z,3.40
2023-01-25T11:13:50.641Z,3.50
2023-01-25T11:16:29.231Z,3.60
2023-01-25T11:18:57.556Z,3.60
2023-01-25T11:21:26.134Z,3.60
2023-01-25T11:24:01.255Z,3.60
2023-01-25T11:26:28.780Z,3.50
2023-01-25T11:29:08.044Z,3.60
2023-01-25T11:31:36.327Z,3.60
2023-01-25T11:34:03.396Z,3.60
2023-01-25T11:36:37.347Z,3.70
2023-01-25T11:39:19.668Z,3.70
2023-01-25T11:41:59.135Z,3.70
2023-01-25T11:45:09.417Z,3.70
2023-01-25T11:47:54.636Z,3.70
2023-01-25T11:50:28.772Z,3.70
2023-01-25T11:53:18.875Z,3.60
2023-01-25T11:55:51.717Z,3.60
2023-01-25T11:58:39.017Z,3.70
2023-01-25T12:01:15.201Z,3.70
2023-01-25T12:04:15.327Z,3.80
2023-01-25T12:06:53.100Z,3.80
2023-01-25T12:09:32.376Z,3.80
2023-01-25T12:12:10.211Z,3.70
2023-01-25T12:15:05.541Z,3.70
2023-01-25T12:17:48.482Z,3.70
2023-01-25T12:20:34.210Z,3.70
2023-01-25T12:23:18.733Z,3.80
2023-01-25T12:25:56.492Z,3.80
2023-01-25T12:28:27.242Z,3.80
2023-01-25T12:30:58.037Z,3.80
2023-01-25T12:33:29.450Z,3.80
2023-01-25T12:36:05.324Z,3.70
2023-01-25T12:38:38.970Z,3.80
2023-01-25T12:41:14.058Z,3.80
2023-01-25T12:43:46.463Z,3.80
2023-01-25T12:46:17.938Z,3.80
2023-01-25T12:48:49.896Z,3.80
2023-01-25T12:51:20.298Z,3.80
2023-01-25T12:53:48.199Z,3.80
2023-01-25T12:56:28.334Z,3.90
2023-01-25T12:59:02.977Z,3.90
2023-01-25T13:01:37.867Z,3.90
2023-01-25T13:04:20.064Z,3.90
2023-01-25T13:06:54.895Z,3.90
2023-01-25T13:09:28.264Z,3.90
2023-01-25T13:11:55.323Z,3.80
2023-01-25T13:14:34.884Z,3.80
2023-01-25T13:17:19.645Z,3.70
2023-01-25T13:19:46.848Z,3.60
2023-01-25T13:22:55.038Z,3.50
2023-01-25T13:25:23.197Z,3.40
2023-01-25T13:27:50.456Z,3.30
2023-01-25T13:30:31.328Z,3.30
2023-01-25T13:33:01.213Z,3.40
2023-01-25T13:35:39.467Z,3.50
2023-01-25T13:38:32.145Z,3.60
2023-01-25T13:41:16.934Z,3.60
2023-01-25T13:43:50.624Z,3.60
2023-01-25T13:46:22.094Z,3.70
2023-01-25T13:49:05.185Z,3.70
2023-01-25T13:51:38.182Z,3.70
2023-01-25T13:54:06.586Z,3.60
2023-01-25T13:56:35.156Z,3.60
2023-01-25T13:59:02.283Z,3.70
2023-01-25T14:01:31.299Z,3.70
2023-01-25T14:04:01.950Z,3.70
2023-01-25T14:06:30.524Z,3.60
2023-01-25T14:09:00.828Z,3.60
2023-01-25T14:11:31.512Z,3.60
2023-01-25T14:14:00.649Z,3.60
2023-01-25T14:16:29.861Z,3.60
2023-01-25T14:19:18.732Z,3.60
2023-01-25T14:21:46.964Z,3.60
2023-01-25T14:24:18.117Z,3.60
2023-01-25T14:26:47.279Z,3.60
2023-01-25T14:29:34.892Z,3.40
2023-01-25T14:32:02.482Z,3.30
2023-01-25T14:34:29.440Z,3.20
2023-01-25T14:37:14.307Z,3.20
2023-01-25T14:39:41.135Z,3.30
2023-01-25T14:42:08.215Z,3.30
2023-01-25T14:44:35.320Z,3.30
2023-01-25T14:47:29.190Z,3.30
2023-01-25T14:49:56.182Z,3.40
2023-01-25T14:52:27.588Z,3.40
2023-01-25T14:54:58.095Z,3.40
2023-01-25T14:57:34.690Z,3.40
2023-01-25T15:00:04.506Z,3.40
2023-01-25T15:02:38.958Z,3.40
2023-01-25T15:05:15.457Z,3.30
2023-01-25T15:07:46.283Z,3.30
2023-01-25T15:10:19.189Z,3.20
2023-01-25T15:13:04.158Z,3.10
2023-01-25T15:15:35.645Z,2.80
2023-01-25T15:18:02.915Z,2.70
2023-01-25T15:20:35.805Z,2.70
2023-01-25T15:23:22.585Z,2.80
2023-01-25T15:25:54.060Z,2.90
2023-01-25T15:28:21.188Z,3.10
2023-01-25T15:30:48.343Z,3.10
2023-01-25T15:33:19.635Z,3.10
2023-01-25T15:35:47.071Z,3.00
2023-01-25T15:38:15.633Z,2.80
2023-01-25T15:40:43.492Z,2.60
2023-01-25T15:43:11.745Z,2.50
2023-01-25T15:45:39.310Z,2.50
2023-01-25T15:48:09.190Z,2.50
2023-01-25T15:50:36.047Z,2.40
2023-01-25T15:53:02.886Z,2.40
2023-01-25T15:55:31.904Z,2.50
2023-01-25T15:57:58.873Z,2.50
2023-01-25T16:00:26.047Z,2.50
2023-01-25T16:02:52.936Z,2.70
2023-01-25T16:05:19.777Z,2.80
2023-01-25T16:07:46.707Z,2.80
2023-01-25T16:10:21.000Z,2.80
2023-01-25T16:12:49.645Z,2.90
2023-01-25T16:15:16.748Z,2.80
2023-01-25T16:17:43.703Z,2.90
2023-01-25T16:20:17.943Z,2.90
2023-01-25T16:22:45.221Z,2.80
2023-01-25T16:25:12.296Z,2.70
2023-01-25T16:27:39.236Z,2.70
2023-01-25T16:30:17.342Z,2.70
2023-01-25T16:32:45.073Z,2.60
2023-01-25T16:35:12.090Z,2.60
2023-01-25T16:37:39.042Z,2.60
2023-01-25T16:40:07.116Z,2.60
2023-01-25T16:42:34.115Z,2.60
2023-01-25T16:45:01.084Z,2.70
2023-01-25T16:47:29.363Z,2.70
2023-01-25T16:49:56.217Z,2.70
2023-01-25T16:52:23.159Z,2.70
2023-01-25T16:54:49.979Z,2.70
2023-01-25T16:57:20.701Z,2.70
2023-01-25T16:59:48.083Z,2.70
2023-01-25T17:02:14.966Z,2.60
2023-01-25T17:04:43.164Z,2.60
2023-01-25T17:07:12.128Z,2.40
2023-01-25T17:09:38.945Z,2.40
2023-01-25T17:12:09.013Z,2.50
2023-01-25T17:14:36.150Z,2.50
2023-01-25T17:17:05.317Z,2.50
2023-01-25T17:19:32.432Z,2.60
2023-01-25T17:22:00.653Z,2.50
2023-01-25T17:24:29.015Z,2.50
2023-01-25T17:26:57.500Z,2.60
2023-01-25T17:29:24.529Z,2.60
2023-01-25T17:31:51.456Z,2.50
2023-01-25T17:34:19.292Z,2.60
2023-01-25T17:36:46.476Z,2.70
2023-01-25T17:39:15.908Z,2.80
2023-01-25T17:41:42.827Z,2.80
2023-01-25T17:44:09.809Z,2.80
2023-01-25T17:46:37.516Z,2.80
2023-01-25T17:49:06.712Z,2.70
2023-01-25T17:51:35.255Z,2.60
2023-01-25T17:54:03.056Z,2.60
2023-01-25T17:56:31.612Z,2.50
2023-01-25T17:59:01.093Z,2.50
2023-01-25T18:01:29.552Z,2.60
2023-01-25T18:03:56.922Z,2.70
2023-01-25T18:06:25.931Z,2.70
2023-01-25T18:08:54.502Z,2.70
2023-01-25T18:11:24.478Z,2.70
2023-01-25T18:13:54.648Z,2.70
2023-01-25T18:16:22.668Z,2.80
2023-01-25T18:18:50.879Z,2.80
2023-01-25T18:21:23.918Z,2.80
2023-01-25T18:23:52.489Z,2.80
2023-01-25T18:26:21.445Z,2.80
2023-01-25T18:28:49.446Z,2.80
2023-01-25T18:31:19.154Z,2.80
2023-01-25T18:33:46.078Z,2.70
2023-01-25T18:36:15.010Z,2.70
2023-01-25T18:38:41.896Z,2.70
2023-01-25T18:41:08.759Z,2.80
2023-01-25T18:43:35.839Z,2.80
2023-01-25T18:46:03.292Z,2.80
2023-01-25T18:48:31.643Z,2.70
2023-01-25T18:50:59.658Z,2.70
2023-01-25T18:53:27.280Z,2.70
2023-01-25T18:56:02.184Z,2.80
2023-01-25T18:58:30.566Z,2.80
2023-01-25T19:01:05.862Z,2.90
2023-01-25T19:03:34.420Z,2.90
2023-01-25T19:06:01.634Z,2.90
2023-01-25T19:08:29.291Z,2.90
2023-01-25T19:11:00.784Z,2.90
2023-01-25T19:13:29.674Z,2.90
2023-01-25T19:16:02.378Z,2.90
2023-01-25T19:18:31.588Z,2.90
2023-01-25T19:21:00.235Z,2.90
2023-01-25T19:23:32.247Z,2.90
2023-01-25T19:25:59.288Z,2.90
2023-01-25T19:28:26.276Z,3.00
2023-01-25T19:30:53.332Z,3.00
2023-01-25T19:33:20.231Z,3.00
2023-01-25T19:35:47.024Z,2.90
2023-01-25T19:38:15.160Z,2.90
2023-01-25T19:40:42.011Z,2.90
2023-01-25T19:43:08.942Z,3.00
2023-01-25T19:45:35.768Z,3.00
2023-01-25T19:48:05.387Z,2.90
2023-01-25T19:50:32.271Z,3.00
2023-01-25T19:53:00.639Z,3.00
2023-01-25T19:55:28.833Z,3.00
2023-01-25T19:57:55.737Z,2.90
2023-01-25T20:00:24.695Z,2.70
2023-01-25T20:02:51.589Z,2.50
2023-01-25T20:05:18.506Z,2.40
2023-01-25T20:07:45.419Z,2.30
2023-01-25T20:10:12.778Z,2.40
2023-01-25T20:12:41.014Z,2.50
2023-01-25T20:15:09.296Z,2.50
2023-01-25T20:17:36.650Z,2.60
2023-01-25T20:20:04.158Z,2.70
2023-01-25T20:22:31.203Z,2.80
2023-01-25T20:24:58.018Z,2.80
2023-01-25T20:27:24.827Z,2.90
2023-01-25T20:29:53.769Z,2.90
2023-01-25T20:32:32.485Z,2.90
2023-01-25T20:35:03.355Z,3.00
2023-01-25T20:37:30.194Z,3.00
2023-01-25T20:39:57.044Z,2.90
2023-01-25T20:42:23.945Z,2.90
2023-01-25T20:44:50.838Z,2.90
2023-01-25T20:47:19.045Z,2.90
2023-01-25T20:49:46.013Z,2.70
2023-01-25T20:52:13.681Z,2.60
2023-01-25T20:54:41.662Z,2.70
2023-01-25T20:57:08.533Z,2.70
2023-01-25T20:59:35.450Z,2.80
2023-01-25T21:02:02.532Z,2.80
2023-01-25T21:04:30.778Z,2.80
2023-01-25T21:06:57.679Z,2.80
2023-01-25T21:09:28.209Z,2.60
2023-01-25T21:11:55.129Z,2.50
2023-01-25T21:14:22.046Z,2.40
2023-01-25T21:16:48.852Z,2.50
2023-01-25T21:19:15.702Z,2.50
2023-01-25T21:21:43.903Z,2.60
2023-01-25T21:24:11.771Z,2.50
2023-01-25T21:26:38.701Z,2.50
2023-01-25T21:29:06.709Z,2.60
2023-01-25T21:31:34.830Z,2.70
2023-01-25T21:34:02.673Z,2.70
2023-01-25T21:36:29.562Z,2.70
2023-01-25T21:38:58.212Z,2.60
2023-01-25T21:41:29.059Z,2.50
2023-01-25T21:44:16.230Z,2.30
2023-01-25T21:46:52.332Z,2.10
2023-01-25T21:49:45.949Z,2.00
2023-01-25T21:52:12.929Z,2.00
2023-01-25T21:54:41.080Z,2.00
2023-01-25T21:57:09.527Z,2.10
2023-01-25T21:59:36.773Z,2.10
2023-01-25T22:02:05.396Z,2.10
2023-01-25T22:04:36.125Z,2.00
2023-01-25T22:07:03.230Z,1.90
2023-01-25T22:09:30.143Z,2.00
2023-01-25T22:11:58.402Z,2.10
2023-01-25T22:14:25.392Z,2.20
2023-01-25T22:16:52.916Z,2.40
2023-01-25T22:19:20.073Z,2.40
2023-01-25T22:21:47.232Z,2.50
2023-01-25T22:24:14.592Z,2.50
2023-01-25T22:26:47.585Z,2.60
2023-01-25T22:29:15.835Z,2.60
2023-01-25T22:31:43.232Z,2.50
2023-01-25T22:34:11.003Z,2.50
2023-01-25T22:36:38.324Z,2.50
2023-01-25T22:39:05.307Z,2.50
2023-01-25T22:41:35.712Z,2.50
2023-01-25T22:44:03.017Z,2.50
2023-01-25T22:46:31.242Z,2.50
2023-01-25T22:48:58.898Z,2.50
2023-01-25T22:51:28.197Z,2.50
2023-01-25T22:53:55.828Z,2.40
2023-01-25T22:56:25.148Z,2.40
2023-01-25T22:58:52.505Z,2.30
2023-01-25T23:01:21.229Z,2.40
2023-01-25T23:03:50.723Z,2.40
2023-01-25T23:06:19.414Z,2.50
2023-01-25T23:08:46.926Z,2.50
2023-01-25T23:11:15.734Z,2.50
2023-01-25T23:14:03.376Z,2.50
2023-01-25T23:16:30.666Z,2.60
2023-01-25T23:18:59.427Z,2.60
2023-01-25T23:21:28.902Z,2.50
2023-01-25T23:23:56.703Z,2.50
2023-01-25T23:26:24.213Z,2.40
2023-01-25T23:28:53.172Z,2.40
2023-01-25T23:31:21.912Z,2.20
2023-01-25T23:33:50.922Z,2.10
2023-01-25T23:36:21.311Z,2.10
2023-01-25T23:38:48.792Z,2.10
2023-01-25T23:41:17.073Z,2.00
2023-01-25T23:43:44.289Z,2.00
2023-01-25T23:46:14.229Z,1.90
2023-01-25T23:48:41.721Z,2.00
2023-01-25T23:51:08.707Z,2.10
2023-01-25T23:53:38.679Z,2.20
2023-01-25T23:56:08.050Z,2.20
2023-01-25T23:58:36.373Z,2.30
